La rose des vents
Donnes mto: Semaine 21/02/22 - 27/02/22 (S 8)
Date Horaire Temp. E. Hum. E. P.atmo. Pluie Vent 1mn Direction Ensoleilleme Ev.Tr. Solaire P. de rose Temp au vent Rafales
21/02/2022 00:00 8,5 C 79 % 1015,4 hPa 0,0 l/m 1,1 km/h (1 Bft) S-SO 0,00 h 0,025 mm 0 W/m 5,1 C 8,5 C 2,7 km/h (1 Bft)
21/02/2022 01:00 8,9 C 80 % 1014,2 hPa 0,0 l/m 0,3 km/h (0 Bft) S-SO 0,00 h 0,025 mm 0 W/m 5,6 C 8,9 C 0,7 km/h (0 Bft)
21/02/2022 02:00 8,6 C 77 % 1013,0 hPa 0,0 l/m 0,1 km/h (0 Bft) S-SO 0,00 h 0,025 mm 0 W/m 4,8 C 8,6 C 0,4 km/h (0 Bft)
21/02/2022 03:00 8,4 C 79 % 1011,8 hPa 0,0 l/m 0,0 km/h (0 Bft) N 0,00 h 0,025 mm 0 W/m 4,9 C 8,4 C 0,3 km/h (0 Bft)
21/02/2022 04:00 8,2 C 82 % 1011,2 hPa 0,0 l/m 0,1 km/h (0 Bft) S-SO 0,00 h 0,025 mm 0 W/m 5,2 C 8,2 C 0,2 km/h (0 Bft)
21/02/2022 05:00 8,1 C 83 % 1010,9 hPa 0,0 l/m 0,1 km/h (0 Bft) S-SO 0,00 h 0,000 mm 0 W/m 5,3 C 8,1 C 0,6 km/h (0 Bft)
21/02/2022 06:00 8,2 C 85 % 1010,3 hPa 0,0 l/m 0,3 km/h (0 Bft) N-NO 0,00 h 0,000 mm 0 W/m 5,8 C 8,2 C 1,2 km/h (1 Bft)
21/02/2022 07:00 9,8 C 75 % 1009,9 hPa 0,0 l/m 6,6 km/h (2 Bft) O-SO 0,18 h 0,000 mm 26 W/m 5,3 C 9,5 C 13,1 km/h (3 Bft)
21/02/2022 08:00 14,5 C 49 % 1009,5 hPa 0,0 l/m 6,1 km/h (2 Bft) O-NO 1,00 h 0,025 mm 152 W/m 3,9 C 14,5 C 14,7 km/h (3 Bft)
21/02/2022 09:00 15,8 C 48 % 1009,6 hPa 0,0 l/m 13,0 km/h (3 Bft) O-SO 1,00 h 0,127 mm 302 W/m 4,8 C 15,8 C 24,9 km/h (4 Bft)
21/02/2022 10:00 15,6 C 50 % 1008,7 hPa 0,0 l/m 15,6 km/h (3 Bft) S-SO 1,00 h 0,254 mm 430 W/m 5,1 C 15,6 C 27,8 km/h (4 Bft)
21/02/2022 11:00 17,1 C 37 % 1008,4 hPa 0,0 l/m 15,6 km/h (3 Bft) O-NO 1,00 h 0,330 mm 522 W/m 2,4 C 17,1 C 28,8 km/h (4 Bft)
21/02/2022 12:00 18,1 C 34 % 1008,0 hPa 0,0 l/m 9,1 km/h (2 Bft) O-NO 0,95 h 0,406 mm 545 W/m 2,0 C 18,1 C 21,6 km/h (4 Bft)
21/02/2022 13:00 17,6 C 30 % 1006,6 hPa 0,0 l/m 13,3 km/h (3 Bft) O-NO 1,00 h 0,381 mm 546 W/m -0,1 C 17,6 C 25,9 km/h (4 Bft)
21/02/2022 14:00 16,5 C 26 % 1004,9 hPa 0,0 l/m 19,6 km/h (3 Bft) O-NO 1,00 h 0,432 mm 484 W/m -2,8 C 16,5 C 35,0 km/h (5 Bft)
21/02/2022 15:00 15,7 C 25 % 1006,0 hPa 0,0 l/m 21,4 km/h (4 Bft) NO 1,00 h 0,457 mm 372 W/m -4,3 C 15,7 C 38,3 km/h (5 Bft)
21/02/2022 16:00 14,8 C 27 % 1007,8 hPa 0,0 l/m 13,5 km/h (3 Bft) O-NO 1,00 h 0,406 mm 227 W/m -4,0 C 14,8 C 27,2 km/h (4 Bft)
21/02/2022 17:00 13,7 C 29 % 1008,6 hPa 0,0 l/m 9,3 km/h (2 Bft) O-NO 0,28 h 0,254 mm 47 W/m -4,2 C 13,7 C 20,0 km/h (4 Bft)
21/02/2022 18:00 12,2 C 34 % 1009,3 hPa 0,0 l/m 7,9 km/h (2 Bft) SO 0,02 h 0,102 mm 6 W/m -3,2 C 12,2 C 16,1 km/h (3 Bft)
21/02/2022 19:00 11,1 C 38 % 1010,4 hPa 0,0 l/m 6,2 km/h (2 Bft) S-SO 0,00 h 0,076 mm 0 W/m -2,7 C 11,1 C 13,0 km/h (3 Bft)
21/02/2022 20:00 11,9 C 34 % 1010,9 hPa 0,0 l/m 11,7 km/h (2 Bft) NO 0,00 h 0,076 mm 0 W/m -3,3 C 11,9 C 21,2 km/h (4 Bft)
21/02/2022 21:00 12,0 C 36 % 1011,1 hPa 0,0 l/m 15,8 km/h (3 Bft) NO 0,00 h 0,102 mm 0 W/m -2,5 C 12,0 C 29,1 km/h (5 Bft)
21/02/2022 22:00 11,8 C 39 % 1011,7 hPa 0,0 l/m 19,8 km/h (4 Bft) NO 0,00 h 0,127 mm 0 W/m -1,7 C 11,8 C 32,9 km/h (5 Bft)
21/02/2022 23:00 11,4 C 40 % 1012,7 hPa 0,0 l/m 14,6 km/h (3 Bft) NO 0,00 h 0,152 mm 0 W/m -1,5 C 11,4 C 26,8 km/h (4 Bft)
22/02/2022 00:00 11,4 C 39 % 1012,7 hPa 0,0 l/m 10,9 km/h (2 Bft) NO 0,00 h 0,102 mm 0 W/m -1,9 C 11,4 C 20,2 km/h (4 Bft)
22/02/2022 01:00 11,8 C 35 % 1012,5 hPa 0,0 l/m 11,1 km/h (2 Bft) NO 0,00 h 0,102 mm 0 W/m -3,1 C 11,8 C 20,2 km/h (4 Bft)
22/02/2022 02:00 12,3 C 32 % 1012,9 hPa 0,0 l/m 8,9 km/h (2 Bft) O-NO 0,00 h 0,102 mm 0 W/m -4,1 C 12,3 C 16,9 km/h (3 Bft)
22/02/2022 03:00 11,9 C 32 % 1013,3 hPa 0,0 l/m 6,9 km/h (2 Bft) O-NO 0,00 h 0,102 mm 0 W/m -4,1 C 11,9 C 14,2 km/h (3 Bft)
22/02/2022 04:00 11,9 C 30 % 1013,2 hPa 0,0 l/m 5,7 km/h (1 Bft) O-NO 0,00 h 0,076 mm 0 W/m -4,9 C 11,9 C 11,2 km/h (2 Bft)
22/02/2022 05:00 10,4 C 35 % 1013,8 hPa 0,0 l/m 1,4 km/h (1 Bft) E 0,00 h 0,076 mm 0 W/m -4,5 C 10,4 C 2,9 km/h (1 Bft)
22/02/2022 06:00 8,6 C 42 % 1014,8 hPa 0,0 l/m 0,6 km/h (0 Bft) S 0,00 h 0,051 mm 0 W/m -3,4 C 8,6 C 1,7 km/h (1 Bft)
22/02/2022 07:00 7,8 C 44 % 1015,7 hPa 0,0 l/m 0,0 km/h (0 Bft) S 0,45 h 0,000 mm 33 W/m -3,7 C 7,8 C 0,4 km/h (0 Bft)
22/02/2022 08:00 11,0 C 39 % 1016,9 hPa 0,0 l/m 0,0 km/h (0 Bft) N 1,00 h 0,025 mm 163 W/m -2,3 C 11,0 C 0,0 km/h (0 Bft)
22/02/2022 09:00 14,1 C 40 % 1017,6 hPa 0,0 l/m 0,0 km/h (0 Bft) N 1,00 h 0,076 mm 318 W/m 0,7 C 14,1 C 0,0 km/h (0 Bft)
22/02/2022 10:00 15,9 C 36 % 1017,9 hPa 0,0 l/m 0,0 km/h (0 Bft) N 1,00 h 0,178 mm 449 W/m 0,9 C 15,9 C 0,0 km/h (0 Bft)
22/02/2022 11:00 17,9 C 32 % 1017,8 hPa 0,0 l/m 0,3 km/h (0 Bft) E-SE 1,00 h 0,254 mm 540 W/m 1,1 C 17,9 C 1,6 km/h (1 Bft)
22/02/2022 12:00 18,6 C 34 % 1017,5 hPa 0,0 l/m 1,4 km/h (1 Bft) S-SE 1,00 h 0,305 mm 577 W/m 2,5 C 18,6 C 3,8 km/h (1 Bft)
22/02/2022 13:00 18,9 C 37 % 1016,8 hPa 0,0 l/m 1,4 km/h (1 Bft) S-SE 1,00 h 0,356 mm 557 W/m 3,8 C 18,9 C 4,7 km/h (1 Bft)
22/02/2022 14:00 19,3 C 37 % 1016,4 hPa 0,0 l/m 1,1 km/h (1 Bft) E 1,00 h 0,330 mm 490 W/m 4,1 C 19,3 C 3,4 km/h (1 Bft)
22/02/2022 15:00 18,9 C 36 % 1016,2 hPa 0,0 l/m 0,8 km/h (0 Bft) SE 1,00 h 0,305 mm 408 W/m 3,3 C 18,9 C 2,7 km/h (1 Bft)
22/02/2022 16:00 17,8 C 50 % 1016,2 hPa 0,0 l/m 0,1 km/h (0 Bft) SE 0,98 h 0,254 mm 217 W/m 7,1 C 17,8 C 0,7 km/h (0 Bft)
22/02/2022 17:00 16,3 C 57 % 1016,2 hPa 0,0 l/m 0,0 km/h (0 Bft) N 0,30 h 0,127 mm 50 W/m 7,7 C 16,3 C 0,0 km/h (0 Bft)
22/02/2022 18:00 12,4 C 68 % 1016,8 hPa 0,0 l/m 0,0 km/h (0 Bft) N 0,00 h 0,025 mm 6 W/m 6,7 C 12,4 C 0,0 km/h (0 Bft)
22/02/2022 19:00 10,1 C 75 % 1017,5 hPa 0,0 l/m 0,0 km/h (0 Bft) N 0,00 h 0,000 mm 0 W/m 5,9 C 10,1 C 0,0 km/h (0 Bft)
22/02/2022 20:00 8,8 C 75 % 1017,8 hPa 0,0 l/m 0,0 km/h (0 Bft) N 0,00 h 0,025 mm 0 W/m 4,6 C 8,8 C 0,0 km/h (0 Bft)
22/02/2022 21:00 8,7 C 68 % 1018,5 hPa 0,0 l/m 0,0 km/h (0 Bft) N 0,00 h 0,025 mm 0 W/m 3,1 C 8,7 C 0,0 km/h (0 Bft)
22/02/2022 22:00 8,7 C 62 % 1018,8 hPa 0,0 l/m 0,0 km/h (0 Bft) N 0,00 h 0,025 mm 0 W/m 1,8 C 8,7 C 0,0 km/h (0 Bft)
22/02/2022 23:00 9,1 C 57 % 1019,1 hPa 0,0 l/m 0,0 km/h (0 Bft) N 0,00 h 0,025 mm 0 W/m 1,1 C 9,1 C 0,0 km/h (0 Bft)
23/02/2022 00:00 8,9 C 58 % 1019,5 hPa 0,0 l/m 0,0 km/h (0 Bft) N 0,00 h 0,025 mm 0 W/m 1,0 C 8,9 C 0,0 km/h (0 Bft)
23/02/2022 01:00 8,2 C 60 % 1019,8 hPa 0,0 l/m 0,0 km/h (0 Bft) N 0,00 h 0,025 mm 0 W/m 0,9 C 8,2 C 0,0 km/h (0 Bft)
23/02/2022 02:00 7,9 C 61 % 1019,9 hPa 0,0 l/m 0,0 km/h (0 Bft) N 0,00 h 0,025 mm 0 W/m 0,8 C 7,9 C 0,0 km/h (0 Bft)
23/02/2022 03:00 7,7 C 61 % 1020,2 hPa 0,0 l/m 0,0 km/h (0 Bft) N 0,00 h 0,025 mm 0 W/m 0,7 C 7,7 C 0,0 km/h (0 Bft)
23/02/2022 04:00 7,5 C 63 % 1020,5 hPa 0,0 l/m 0,0 km/h (0 Bft) N 0,00 h 0,025 mm 0 W/m 0,8 C 7,5 C 0,0 km/h (0 Bft)
23/02/2022 05:00 6,7 C 62 % 1021,2 hPa 0,0 l/m 0,0 km/h (0 Bft) N 0,00 h 0,025 mm 0 W/m -0,0 C 6,7 C 0,0 km/h (0 Bft)
23/02/2022 06:00 6,2 C 64 % 1021,8 hPa 0,0 l/m 0,0 km/h (0 Bft) N 0,00 h 0,025 mm 0 W/m -0,2 C 6,2 C 0,0 km/h (0 Bft)
23/02/2022 07:00 5,6 C 66 % 1022,8 hPa 0,0 l/m 0,0 km/h (0 Bft) N 0,43 h 0,000 mm 31 W/m -0,2 C 5,6 C 0,0 km/h (0 Bft)
23/02/2022 08:00 7,9 C 58 % 1023,5 hPa 0,0 l/m 0,0 km/h (0 Bft) N 1,00 h 0,025 mm 165 W/m 0,2 C 7,9 C 0,0 km/h (0 Bft)
23/02/2022 09:00 12,6 C 50 % 1024,0 hPa 0,0 l/m 0,0 km/h (0 Bft) N 1,00 h 0,076 mm 323 W/m 2,5 C 12,6 C 0,2 km/h (0 Bft)
23/02/2022 10:00 16,5 C 43 % 1024,4 hPa 0,0 l/m 0,5 km/h (0 Bft) SE 1,00 h 0,178 mm 456 W/m 4,0 C 16,5 C 2,3 km/h (1 Bft)
23/02/2022 11:00 17,7 C 47 % 1024,9 hPa 0,0 l/m 1,3 km/h (1 Bft) E-SE 1,00 h 0,254 mm 546 W/m 6,3 C 17,7 C 4,1 km/h (1 Bft)
23/02/2022 12:00 18,4 C 48 % 1024,8 hPa 0,0 l/m 1,6 km/h (1 Bft) E-SE 1,00 h 0,305 mm 582 W/m 7,1 C 18,4 C 4,9 km/h (1 Bft)
23/02/2022 13:00 18,4 C 53 % 1024,3 hPa 0,0 l/m 1,7 km/h (1 Bft) E 1,00 h 0,330 mm 562 W/m 8,5 C 18,4 C 4,9 km/h (1 Bft)
23/02/2022 14:00 18,8 C 53 % 1023,9 hPa 0,0 l/m 1,3 km/h (1 Bft) S 1,00 h 0,330 mm 493 W/m 9,0 C 18,8 C 4,4 km/h (1 Bft)
23/02/2022 15:00 17,8 C 54 % 1023,9 hPa 0,0 l/m 1,0 km/h (0 Bft) S 1,00 h 0,279 mm 376 W/m 8,4 C 17,8 C 3,3 km/h (1 Bft)
23/02/2022 16:00 17,7 C 60 % 1023,8 hPa 0,0 l/m 0,0 km/h (0 Bft) N 1,00 h 0,229 mm 228 W/m 9,8 C 17,7 C 0,4 km/h (0 Bft)
23/02/2022 17:00 15,7 C 68 % 1024,0 hPa 0,0 l/m 0,0 km/h (0 Bft) N 0,35 h 0,127 mm 57 W/m 9,9 C 15,7 C 0,0 km/h (0 Bft)
23/02/2022 18:00 12,4 C 77 % 1024,6 hPa 0,0 l/m 0,0 km/h (0 Bft) N 0,00 h 0,025 mm 6 W/m 8,5 C 12,4 C 0,0 km/h (0 Bft)
23/02/2022 19:00 10,3 C 85 % 1025,1 hPa 0,0 l/m 0,0 km/h (0 Bft) N 0,00 h 0,000 mm 0 W/m 7,8 C 10,3 C 0,0 km/h (0 Bft)
23/02/2022 20:00 9,3 C 88 % 1025,2 hPa 0,0 l/m 0,0 km/h (0 Bft) N 0,00 h 0,000 mm 0 W/m 7,4 C 9,3 C 0,0 km/h (0 Bft)
23/02/2022 21:00 8,4 C 85 % 1025,1 hPa 0,0 l/m 0,0 km/h (0 Bft) N 0,00 h 0,000 mm 0 W/m 6,1 C 8,4 C 0,0 km/h (0 Bft)
23/02/2022 22:00 8,4 C 73 % 1025,0 hPa 0,0 l/m 0,0 km/h (0 Bft) N 0,00 h 0,000 mm 0 W/m 3,9 C 8,4 C 0,0 km/h (0 Bft)
23/02/2022 23:00 7,9 C 57 % 1025,0 hPa 0,0 l/m 0,0 km/h (0 Bft) N 0,00 h 0,025 mm 0 W/m -0,1 C 7,9 C 0,0 km/h (0 Bft)
24/02/2022 00:00 8,2 C 53 % 1025,1 hPa 0,0 l/m 0,0 km/h (0 Bft) N 0,00 h 0,025 mm 0 W/m -0,9 C 8,2 C 0,0 km/h (0 Bft)
24/02/2022 01:00 7,8 C 62 % 1025,4 hPa 0,0 l/m 0,0 km/h (0 Bft) N 0,00 h 0,025 mm 0 W/m 1,0 C 7,8 C 0,0 km/h (0 Bft)
24/02/2022 02:00 7,5 C 62 % 1025,3 hPa 0,0 l/m 0,0 km/h (0 Bft) N 0,00 h 0,025 mm 0 W/m 0,8 C 7,5 C 0,0 km/h (0 Bft)
24/02/2022 03:00 7,3 C 65 % 1024,3 hPa 0,0 l/m 0,0 km/h (0 Bft) N 0,00 h 0,025 mm 0 W/m 1,1 C 7,3 C 0,0 km/h (0 Bft)
24/02/2022 04:00 7,2 C 65 % 1023,8 hPa 0,0 l/m 0,0 km/h (0 Bft) N 0,00 h 0,025 mm 0 W/m 1,1 C 7,2 C 0,0 km/h (0 Bft)
24/02/2022 05:00 7,1 C 58 % 1024,0 hPa 0,0 l/m 0,0 km/h (0 Bft) N 0,00 h 0,025 mm 0 W/m -0,7 C 7,1 C 0,0 km/h (0 Bft)
24/02/2022 06:00 7,1 C 54 % 1024,1 hPa 0,0 l/m 0,0 km/h (0 Bft) N 0,00 h 0,025 mm 0 W/m -1,6 C 7,1 C 0,0 km/h (0 Bft)
24/02/2022 07:00 7,2 C 54 % 1024,0 hPa 0,0 l/m 0,0 km/h (0 Bft) N 0,23 h 0,000 mm 34 W/m -1,6 C 7,2 C 0,0 km/h (0 Bft)
24/02/2022 08:00 7,6 C 59 % 1023,8 hPa 0,0 l/m 0,0 km/h (0 Bft) N 0,28 h 0,025 mm 112 W/m 0,2 C 7,6 C 0,0 km/h (0 Bft)
24/02/2022 09:00 9,9 C 59 % 1024,0 hPa 0,0 l/m 0,0 km/h (0 Bft) N 0,50 h 0,051 mm 200 W/m 2,3 C 9,9 C 0,0 km/h (0 Bft)
24/02/2022 10:00 12,3 C 62 % 1023,5 hPa 0,0 l/m 0,0 km/h (0 Bft) N 0,00 h 0,102 mm 202 W/m 5,2 C 12,3 C 0,1 km/h (0 Bft)
24/02/2022 11:00 12,9 C 67 % 1023,2 hPa 0,0 l/m 0,9 km/h (0 Bft) S 0,00 h 0,102 mm 158 W/m 6,8 C 12,9 C 2,7 km/h (1 Bft)
24/02/2022 12:00 11,9 C 78 % 1022,9 hPa 0,0 l/m 0,5 km/h (0 Bft) S 0,12 h 0,076 mm 159 W/m 8,3 C 11,9 C 2,1 km/h (1 Bft)
24/02/2022 13:00 14,0 C 72 % 1021,5 hPa 0,0 l/m 1,8 km/h (1 Bft) S 0,68 h 0,076 mm 436 W/m 9,0 C 14,0 C 4,2 km/h (1 Bft)
24/02/2022 14:00 14,5 C 70 % 1020,4 hPa 0,0 l/m 2,0 km/h (1 Bft) S 0,22 h 0,229 mm 244 W/m 9,0 C 14,5 C 5,1 km/h (1 Bft)
24/02/2022 15:00 13,9 C 75 % 1019,8 hPa 0,0 l/m 1,7 km/h (1 Bft) S 0,30 h 0,127 mm 214 W/m 9,5 C 13,9 C 4,4 km/h (1 Bft)
24/02/2022 16:00 13,2 C 78 % 1019,2 hPa 0,0 l/m 4,4 km/h (1 Bft) S 0,27 h 0,127 mm 132 W/m 9,4 C 13,2 C 8,3 km/h (2 Bft)
24/02/2022 17:00 12,8 C 75 % 1018,8 hPa 0,0 l/m 2,2 km/h (1 Bft) SO 0,22 h 0,076 mm 59 W/m 8,6 C 12,8 C 5,6 km/h (1 Bft)
24/02/2022 18:00 11,8 C 75 % 1018,8 hPa 0,0 l/m 0,1 km/h (0 Bft) SO 0,00 h 0,051 mm 6 W/m 7,6 C 11,8 C 0,2 km/h (0 Bft)
24/02/2022 19:00 10,3 C 84 % 1018,9 hPa 0,0 l/m 0,0 km/h (0 Bft) N 0,00 h 0,000 mm 0 W/m 7,7 C 10,3 C 0,0 km/h (0 Bft)
24/02/2022 20:00 9,5 C 87 % 1018,6 hPa 0,0 l/m 0,0 km/h (0 Bft) N 0,00 h 0,000 mm 0 W/m 7,4 C 9,5 C 0,0 km/h (0 Bft)
24/02/2022 21:00 8,6 C 88 % 1018,2 hPa 0,0 l/m 0,0 km/h (0 Bft) N 0,00 h 0,000 mm 0 W/m 6,8 C 8,6 C 0,0 km/h (0 Bft)
24/02/2022 22:00 8,0 C 89 % 1018,0 hPa 0,0 l/m 0,0 km/h (0 Bft) N 0,00 h 0,000 mm 0 W/m 6,3 C 8,0 C 0,0 km/h (0 Bft)
24/02/2022 23:00 7,7 C 89 % 1017,9 hPa 0,0 l/m 0,0 km/h (0 Bft) N 0,00 h 0,000 mm 0 W/m 5,9 C 7,7 C 0,1 km/h (0 Bft)
25/02/2022 00:00 7,6 C 88 % 1017,7 hPa 0,0 l/m 0,0 km/h (0 Bft) N 0,00 h 0,000 mm 0 W/m 5,7 C 7,6 C 0,1 km/h (0 Bft)
25/02/2022 01:00 7,2 C 88 % 1017,6 hPa 0,0 l/m 0,1 km/h (0 Bft) SO 0,00 h 0,000 mm 0 W/m 5,3 C 7,2 C 0,8 km/h (0 Bft)
25/02/2022 02:00 7,3 C 86 % 1017,3 hPa 0,0 l/m 0,3 km/h (0 Bft) SO 0,00 h 0,000 mm 0 W/m 5,2 C 7,3 C 1,8 km/h (1 Bft)
25/02/2022 03:00 7,3 C 85 % 1016,9 hPa 0,0 l/m 0,7 km/h (0 Bft) SO 0,00 h 0,000 mm 0 W/m 4,9 C 7,3 C 2,9 km/h (1 Bft)
25/02/2022 04:00 7,4 C 88 % 1016,6 hPa 0,0 l/m 0,1 km/h (0 Bft) SO 0,00 h 0,000 mm 0 W/m 5,4 C 7,4 C 0,8 km/h (0 Bft)
25/02/2022 05:00 6,9 C 86 % 1016,5 hPa 0,0 l/m 0,2 km/h (0 Bft) SO 0,00 h 0,000 mm 0 W/m 4,8 C 6,9 C 1,1 km/h (1 Bft)
25/02/2022 06:00 6,7 C 85 % 1016,5 hPa 0,0 l/m 0,9 km/h (0 Bft) SO 0,00 h 0,000 mm 0 W/m 4,2 C 6,7 C 3,0 km/h (1 Bft)
25/02/2022 07:00 6,4 C 84 % 1016,8 hPa 0,0 l/m 0,4 km/h (0 Bft) SO 0,20 h 0,000 mm 29 W/m 3,9 C 6,4 C 1,8 km/h (1 Bft)
25/02/2022 08:00 7,8 C 82 % 1016,7 hPa 0,0 l/m 0,0 km/h (0 Bft) N 1,00 h 0,025 mm 151 W/m 5,0 C 7,8 C 0,1 km/h (0 Bft)
25/02/2022 09:00 11,8 C 78 % 1016,6 hPa 0,0 l/m 0,6 km/h (0 Bft) S-SE 1,00 h 0,076 mm 312 W/m 8,1 C 11,8 C 1,2 km/h (1 Bft)
25/02/2022 10:00 14,2 C 75 % 1016,7 hPa 0,0 l/m 2,2 km/h (1 Bft) SE 0,98 h 0,152 mm 464 W/m 9,8 C 14,2 C 5,4 km/h (1 Bft)
25/02/2022 11:00 15,1 C 70 % 1016,5 hPa 0,0 l/m 1,8 km/h (1 Bft) SE 0,62 h 0,254 mm 382 W/m 9,7 C 15,1 C 4,7 km/h (1 Bft)
25/02/2022 12:00 15,9 C 67 % 1016,3 hPa 0,0 l/m 3,3 km/h (1 Bft) SE 0,95 h 0,203 mm 597 W/m 9,7 C 15,9 C 6,9 km/h (2 Bft)
25/02/2022 13:00 16,4 C 62 % 1015,9 hPa 0,0 l/m 2,2 km/h (1 Bft) S 0,82 h 0,330 mm 504 W/m 9,1 C 16,4 C 6,1 km/h (2 Bft)
25/02/2022 14:00 16,7 C 61 % 1015,6 hPa 0,0 l/m 2,2 km/h (1 Bft) S-SE 0,93 h 0,279 mm 478 W/m 9,2 C 16,7 C 6,2 km/h (2 Bft)
25/02/2022 15:00 16,9 C 62 % 1015,4 hPa 0,0 l/m 1,2 km/h (1 Bft) E-SE 1,00 h 0,279 mm 375 W/m 9,6 C 16,9 C 4,2 km/h (1 Bft)
25/02/2022 16:00 16,2 C 65 % 1015,3 hPa 0,0 l/m 0,5 km/h (0 Bft) SE 1,00 h 0,203 mm 218 W/m 9,6 C 16,2 C 2,5 km/h (1 Bft)
25/02/2022 17:00 14,4 C 70 % 1015,7 hPa 0,0 l/m 0,0 km/h (0 Bft) SE 0,27 h 0,127 mm 61 W/m 8,9 C 14,4 C 0,3 km/h (0 Bft)
25/02/2022 18:00 12,4 C 76 % 1016,5 hPa 0,0 l/m 0,0 km/h (0 Bft) N 0,03 h 0,025 mm 8 W/m 8,2 C 12,4 C 0,0 km/h (0 Bft)
25/02/2022 19:00 10,9 C 81 % 1017,2 hPa 0,0 l/m 0,0 km/h (0 Bft) N 0,00 h 0,000 mm 0 W/m 7,7 C 10,9 C 0,0 km/h (0 Bft)
25/02/2022 20:00 9,9 C 85 % 1018,1 hPa 0,0 l/m 0,0 km/h (0 Bft) N 0,00 h 0,025 mm 0 W/m 7,6 C 9,9 C 0,0 km/h (0 Bft)
25/02/2022 21:00 9,5 C 86 % 1018,7 hPa 0,0 l/m 0,0 km/h (0 Bft) N 0,00 h 0,000 mm 0 W/m 7,3 C 9,5 C 0,0 km/h (0 Bft)
25/02/2022 22:00 9,6 C 88 % 1019,1 hPa 0,0 l/m 0,1 km/h (0 Bft) E-SE 0,00 h 0,000 mm 0 W/m 7,7 C 9,6 C 0,7 km/h (0 Bft)
25/02/2022 23:00 10,0 C 86 % 1019,1 hPa 0,0 l/m 1,3 km/h (1 Bft) NO 0,00 h 0,000 mm 0 W/m 7,8 C 10,0 C 3,6 km/h (1 Bft)
26/02/2022 00:00 10,1 C 84 % 1019,5 hPa 0,0 l/m 0,4 km/h (0 Bft) NO 0,00 h 0,000 mm 0 W/m 7,5 C 10,1 C 1,5 km/h (1 Bft)
26/02/2022 01:00 10,0 C 83 % 1019,9 hPa 0,0 l/m 0,0 km/h (0 Bft) N 0,00 h 0,000 mm 0 W/m 7,2 C 10,0 C 0,0 km/h (0 Bft)
26/02/2022 02:00 9,6 C 82 % 1020,6 hPa 0,0 l/m 0,2 km/h (0 Bft) NO 0,00 h 0,000 mm 0 W/m 6,8 C 9,6 C 0,6 km/h (0 Bft)
26/02/2022 03:00 9,3 C 79 % 1020,9 hPa 0,0 l/m 0,0 km/h (0 Bft) N 0,00 h 0,025 mm 0 W/m 6,0 C 9,3 C 0,1 km/h (0 Bft)
26/02/2022 04:00 8,4 C 82 % 1021,5 hPa 0,0 l/m 0,0 km/h (0 Bft) N 0,00 h 0,025 mm 0 W/m 5,4 C 8,4 C 0,0 km/h (0 Bft)
26/02/2022 05:00 7,7 C 81 % 1022,1 hPa 0,0 l/m 0,8 km/h (0 Bft) NO 0,00 h 0,000 mm 0 W/m 4,7 C 7,6 C 2,4 km/h (1 Bft)
26/02/2022 06:00 7,0 C 78 % 1022,9 hPa 0,0 l/m 0,2 km/h (0 Bft) NO 0,00 h 0,025 mm 0 W/m 3,5 C 7,0 C 0,7 km/h (0 Bft)
26/02/2022 07:00 6,3 C 70 % 1023,7 hPa 0,0 l/m 0,3 km/h (0 Bft) O-NO 0,50 h 0,000 mm 38 W/m 1,2 C 6,3 C 1,3 km/h (1 Bft)
26/02/2022 08:00 7,9 C 54 % 1024,1 hPa 0,0 l/m 0,8 km/h (0 Bft) N-NO 1,00 h 0,025 mm 181 W/m -1,0 C 7,9 C 3,0 km/h (1 Bft)
26/02/2022 09:00 11,6 C 43 % 1024,4 hPa 0,0 l/m 2,3 km/h (1 Bft) O 1,00 h 0,076 mm 337 W/m -0,5 C 11,6 C 4,8 km/h (1 Bft)
26/02/2022 10:00 14,0 C 33 % 1024,5 hPa 0,0 l/m 1,3 km/h (1 Bft) S 1,00 h 0,178 mm 473 W/m -2,5 C 14,0 C 3,9 km/h (1 Bft)
26/02/2022 11:00 17,2 C 21 % 1024,1 hPa 0,0 l/m 0,7 km/h (0 Bft) NO 1,00 h 0,254 mm 566 W/m -5,2 C 17,2 C 3,7 km/h (1 Bft)
26/02/2022 12:00 16,3 C 29 % 1023,8 hPa 0,0 l/m 3,9 km/h (1 Bft) S-SE 1,00 h 0,330 mm 600 W/m -1,9 C 16,3 C 8,3 km/h (2 Bft)
26/02/2022 13:00 15,6 C 30 % 1023,4 hPa 0,0 l/m 3,9 km/h (1 Bft) S 1,00 h 0,356 mm 583 W/m -2,1 C 15,6 C 8,0 km/h (2 Bft)
26/02/2022 14:00 15,7 C 32 % 1023,0 hPa 0,0 l/m 5,1 km/h (1 Bft) S 1,00 h 0,356 mm 512 W/m -1,0 C 15,7 C 9,6 km/h (2 Bft)
26/02/2022 15:00 14,8 C 34 % 1022,8 hPa 0,0 l/m 6,7 km/h (2 Bft) S 1,00 h 0,330 mm 395 W/m -0,7 C 14,8 C 12,1 km/h (2 Bft)
26/02/2022 16:00 14,3 C 33 % 1022,6 hPa 0,0 l/m 4,6 km/h (1 Bft) S 1,00 h 0,254 mm 246 W/m -1,9 C 14,3 C 8,5 km/h (2 Bft)
26/02/2022 17:00 13,0 C 37 % 1022,6 hPa 0,0 l/m 2,9 km/h (1 Bft) SO 0,88 h 0,178 mm 86 W/m -1,3 C 13,0 C 6,4 km/h (2 Bft)
26/02/2022 18:00 10,5 C 44 % 1023,1 hPa 0,0 l/m 2,5 km/h (1 Bft) O-SO 0,00 h 0,076 mm 8 W/m -1,3 C 10,5 C 6,7 km/h (2 Bft)
26/02/2022 19:00 9,1 C 44 % 1023,3 hPa 0,0 l/m 3,4 km/h (1 Bft) O-NO 0,00 h 0,025 mm 0 W/m -2,6 C 9,0 C 7,3 km/h (2 Bft)
26/02/2022 20:00 8,6 C 46 % 1023,3 hPa 0,0 l/m 3,2 km/h (1 Bft) O-NO 0,00 h 0,051 mm 0 W/m -2,5 C 8,5 C 6,4 km/h (2 Bft)
26/02/2022 21:00 7,9 C 46 % 1023,4 hPa 0,0 l/m 1,7 km/h (1 Bft) O-SO 0,00 h 0,051 mm 0 W/m -3,1 C 7,9 C 3,6 km/h (1 Bft)
26/02/2022 22:00 7,2 C 46 % 1023,3 hPa 0,0 l/m 2,3 km/h (1 Bft) O-SO 0,00 h 0,051 mm 0 W/m -3,6 C 7,2 C 4,3 km/h (1 Bft)
26/02/2022 23:00 6,8 C 46 % 1023,1 hPa 0,0 l/m 1,8 km/h (1 Bft) O-NO 0,00 h 0,051 mm 0 W/m -3,9 C 6,8 C 3,7 km/h (1 Bft)
27/02/2022 00:00 6,6 C 46 % 1023,3 hPa 0,0 l/m 0,4 km/h (0 Bft) O-NO 0,00 h 0,051 mm 0 W/m -4,0 C 6,6 C 1,8 km/h (1 Bft)
27/02/2022 01:00 6,0 C 52 % 1023,7 hPa 0,0 l/m 1,1 km/h (0 Bft) O-NO 0,00 h 0,025 mm 0 W/m -3,2 C 6,0 C 3,4 km/h (1 Bft)
27/02/2022 02:00 5,8 C 57 % 1023,6 hPa 0,0 l/m 0,3 km/h (0 Bft) NO 0,00 h 0,025 mm 0 W/m -2,0 C 5,8 C 2,1 km/h (1 Bft)
27/02/2022 03:00 6,0 C 62 % 1023,6 hPa 0,0 l/m 0,1 km/h (0 Bft) NO 0,00 h 0,025 mm 0 W/m -0,7 C 6,0 C 0,4 km/h (0 Bft)
27/02/2022 04:00 5,4 C 65 % 1023,6 hPa 0,0 l/m 0,0 km/h (0 Bft) NO 0,00 h 0,025 mm 0 W/m -0,6 C 5,4 C 0,2 km/h (0 Bft)
27/02/2022 05:00 5,0 C 67 % 1023,7 hPa 0,0 l/m 0,2 km/h (0 Bft) NO 0,00 h 0,025 mm 0 W/m -0,7 C 5,0 C 1,2 km/h (1 Bft)
27/02/2022 06:00 4,9 C 68 % 1024,0 hPa 0,0 l/m 0,1 km/h (0 Bft) NO 0,00 h 0,025 mm 0 W/m -0,5 C 4,9 C 1,1 km/h (1 Bft)
27/02/2022 07:00 5,1 C 68 % 1024,5 hPa 0,0 l/m 0,1 km/h (0 Bft) NO 0,45 h 0,000 mm 36 W/m -0,2 C 5,1 C 1,1 km/h (1 Bft)
27/02/2022 08:00 7,4 C 65 % 1024,9 hPa 0,0 l/m 0,0 km/h (0 Bft) N 0,50 h 0,025 mm 143 W/m 1,3 C 7,4 C 0,0 km/h (0 Bft)
27/02/2022 09:00 9,0 C 62 % 1025,2 hPa 0,0 l/m 0,0 km/h (0 Bft) N 0,03 h 0,076 mm 86 W/m 2,1 C 9,0 C 0,0 km/h (0 Bft)
27/02/2022 10:00 9,2 C 62 % 1025,4 hPa 0,0 l/m 0,0 km/h (0 Bft) N 0,25 h 0,051 mm 214 W/m 2,2 C 9,2 C 0,0 km/h (0 Bft)
27/02/2022 11:00 12,5 C 50 % 1025,2 hPa 0,0 l/m 1,0 km/h (0 Bft) E-SE 0,53 h 0,102 mm 421 W/m 2,4 C 12,5 C 3,3 km/h (1 Bft)
27/02/2022 12:00 11,7 C 46 % 1025,1 hPa 0,0 l/m 1,8 km/h (1 Bft) E-SE 0,05 h 0,229 mm 245 W/m 0,5 C 11,7 C 5,3 km/h (1 Bft)
27/02/2022 13:00 12,5 C 43 % 1024,6 hPa 0,0 l/m 1,4 km/h (1 Bft) E 0,42 h 0,152 mm 396 W/m 0,2 C 12,5 C 5,3 km/h (1 Bft)
27/02/2022 14:00 13,3 C 41 % 1024,2 hPa 0,0 l/m 0,6 km/h (0 Bft) E 0,32 h 0,229 mm 311 W/m 0,2 C 13,3 C 2,4 km/h (1 Bft)
27/02/2022 15:00 11,0 C 44 % 1024,2 hPa 0,0 l/m 1,4 km/h (1 Bft) E-SE 0,00 h 0,178 mm 114 W/m -0,8 C 11,0 C 3,7 km/h (1 Bft)
27/02/2022 16:00 9,7 C 49 % 1024,7 hPa 0,0 l/m 0,2 km/h (0 Bft) SE 0,00 h 0,076 mm 39 W/m -0,6 C 9,7 C 0,9 km/h (0 Bft)
27/02/2022 17:00 8,9 C 53 % 1024,9 hPa 0,0 l/m 0,2 km/h (0 Bft) SE 0,00 h 0,025 mm 19 W/m -0,1 C 8,9 C 0,7 km/h (0 Bft)
27/02/2022 18:00 7,8 C 58 % 1025,4 hPa 0,0 l/m 0,8 km/h (0 Bft) SE 0,00 h 0,025 mm 7 W/m 0,2 C 7,8 C 2,2 km/h (1 Bft)
27/02/2022 19:00 6,7 C 63 % 1026,0 hPa 0,0 l/m 1,8 km/h (1 Bft) SE 0,00 h 0,000 mm 0 W/m 0,1 C 6,7 C 3,3 km/h (1 Bft)
27/02/2022 20:00 5,6 C 67 % 1026,0 hPa 0,0 l/m 1,7 km/h (1 Bft) S-SE 0,00 h 0,025 mm 0 W/m -0,0 C 5,6 C 3,6 km/h (1 Bft)
27/02/2022 21:00 5,0 C 70 % 1026,6 hPa 0,0 l/m 2,1 km/h (1 Bft) O-NO 0,00 h 0,025 mm 0 W/m 0,1 C 5,0 C 4,2 km/h (1 Bft)
27/02/2022 22:00 4,6 C 70 % 1026,9 hPa 0,0 l/m 0,2 km/h (0 Bft) O-NO 0,00 h 0,025 mm 0 W/m -0,4 C 4,6 C 1,4 km/h (1 Bft)
27/02/2022 23:00 4,1 C 70 % 1027,1 hPa 0,0 l/m 0,6 km/h (0 Bft) O-NO 0,00 h 0,025 mm 0 W/m -0,9 C 4,1 C 1,9 km/h (1 Bft)
Min-Date _ 27/02/22 26/02/22 21/02/22 - 21/02/22 - - - - 26/02/22 27/02/22 21/02/22
_ Min-Heure 23:25 11:49 14:15 - 00:00 - - - - 11:49 23:25 00:00
Minimum _ 4,0 C 18 % 1004,7 hPa - 0,0 km/h (0 Bft) - - - - -6,8 C 4,0 C 0,0 km/h (0 Bft)
Max-Date _ 22/02/22 21/02/22 27/02/22 21/02/22 21/02/22 - 21/02/22 21/02/22 27/02/22 23/02/22 22/02/22 21/02/22
_ Max-Heure 15:20 07:21 23:45 00:00 14:57 - 07:49 15:00 13:07 17:03 15:20 11:30
Maximum _ 19,6 C 89 % 1027,2 hPa 0,0 l/m 35,4 km/h
O-NO (5 Bft)
- 0,02 h 0,457 mm 860 W/m 10,5 C 19,6 C 57,9 km/h
O-NO (7 Bft)
Moyenne _ 10,9 C 60 % 1019,4 hPa #0,0 l/m 2,2 km/h (1 Bft) O-NO #53:30 h #16,517 mm 272 W/m 2,6 C 10,9 C 4,7 km/h (1 Bft)
Roquefort les pins